Terminal Aerodrome Forecast
Issued by NWS

Home | Current Version | Previous Version | Text Only | Print | Product List | Glossary On
Versions: 1 2 3 4 5 6 7 8 9 10 11 12 13 14 15 16 17 18 19 20 21 22 23 24
000
FTUS46 KLOX 011306 AAA
TAFLGB
TAF AMD
KLGB 011306Z 0113/0212 VRB03KT P6SM OVC012
     FM011800 19008KT P6SM SKC
     FM012300 29008KT P6SM SKC
     FM020500 VRB03KT P6SM SKC
     FM020900 VRB03KT P6SM OVC012=

USA.gov is the U.S. government's official web portal to all federal, state and local government web resources and services.